Airfield :
LOGIN :

Register | Disclaimer

   EN    FR    IT 

 










Legend :    VFR   Marginal VFR   IFR   Intensive IFR   Very Intensive IFR
Visi :
Ceiling :
>= 8 km
>= 3000ft
5 to 8 km
1000 to 3000 ft
1500m to 5 km
500 to 1000 ft
800 to 1500m
200 to 500 ft
< 800m
< 200 ft
Symbols :   Thunderstorms  Fog  Heavy snow  Heavy precipitations  Wind > 20 kt
SIGMETs :     Misc.  Thunderstorms  Icing  Turbulence  Mountain Waves  Volcanic Ashes







- Airport Elevation : 36 ft
- IATA code : LTQ
- Download approach charts


LFAT - Le Touquet

CURRENT METAR :
  • 190700Z AUTO 15007KT 8000 NSC 12/11 Q1007 NOSIG

EXPIRED METARs :
  • 190630Z AUTO 13005KT 7000 NSC 11/11 Q1007 NOSIG
  • 190600Z AUTO 13006KT 7000 NSC 12/11 Q1007 NOSIG
  • 190530Z AUTO 14006KT 7000 NSC 12/11 Q1008 NOSIG
  • 190500Z AUTO 14005KT 5000 BR NSC 11/11 Q1008
  • 190430Z AUTO 14005KT 6000 NSC 12/11 Q1008

TAF TAF LFAT
Valid from the 19 at 06:00 until the 19 at 15:00 UTC


190500Z 1906/1915 14010KT 8000 NSC
BECMG 1913/1915 18010G20KT
ATIS : +33 3 21 06 62 84
No reported NOTAMs for that airfield.



MET'MAP, your aeronautical weather chart ! - Copyright ORBIFLY December 2007 - Disclaimer

ORBIFLY MET'MAP TEAM :

Programming & Development : Alexandra Zaïnal
Concept & Development : Baudouin d'Aumeries
Co-Development & Prog : Marc-Olivier Méhu
Technical & hardware support : Manuel Goepfert

Contact : metmap@orbifly.com




SOURCES & CREDITS :

   NOAA